Time;durP1;ratioP1;P1;durP2;ratioP2;P2;SDS_P1;SDS_P2;PMS_P1;PMS_P2;Temp;Humidity;BMP_temperature;BMP_pressure;BME280_temperature;BME280_humidity;BME280_pressure;Samples;Min_cycle;Max_cycle;Signal;HPM_P1;HPM_P2
2023/12/31 00:00:09;;;;;;;12.32;2.28;;;11.60;99.90;;;;;;5064918;28;20127;-73
2023/12/31 00:02:37;;;;;;;8.75;1.80;;;11.60;99.90;;;;;;5062576;28;20612;-73
2023/12/31 00:05:05;;;;;;;5.78;1.65;;;11.60;99.90;;;;;;5065487;28;20048;-73
2023/12/31 00:07:33;;;;;;;6.25;2.17;;;11.60;99.90;;;;;;5052343;28;20040;-73
2023/12/31 00:10:01;;;;;;;5.75;1.70;;;11.60;99.90;;;;;;5056313;28;20080;-74
2023/12/31 00:12:27;;;;;;;5.57;2.00;;;11.60;99.90;;;;;;5051586;28;20053;-73
2023/12/31 00:14:54;;;;;;;14.43;2.20;;;11.60;99.90;;;;;;5064990;28;20044;-73
2023/12/31 00:17:21;;;;;;;7.53;1.90;;;11.60;99.90;;;;;;5050962;28;20045;-73
2023/12/31 00:19:48;;;;;;;13.95;2.83;;;11.70;99.90;;;;;;5065122;28;20044;-74
2023/12/31 00:22:15;;;;;;;12.57;2.05;;;11.70;99.90;;;;;;5057838;28;20515;-72
2023/12/31 00:24:42;;;;;;;8.20;1.52;;;11.70;99.90;;;;;;5065609;28;20044;-74
2023/12/31 00:27:08;;;;;;;13.68;2.05;;;11.70;99.90;;;;;;5052236;28;20435;-73
2023/12/31 00:29:35;;;;;;;13.57;1.88;;;11.80;99.90;;;;;;5067768;28;20032;-73
2023/12/31 00:32:02;;;;;;;6.47;1.50;;;11.80;99.90;;;;;;5059725;28;20192;-73
2023/12/31 00:34:29;;;;;;;12.98;2.05;;;11.90;99.90;;;;;;5062233;28;20036;-73
2023/12/31 00:36:56;;;;;;;8.95;2.35;;;11.90;99.90;;;;;;5054964;28;20053;-73
2023/12/31 00:39:23;;;;;;;7.70;2.03;;;11.80;99.90;;;;;;5059757;28;20052;-73
2023/12/31 00:41:49;;;;;;;9.35;2.35;;;11.60;99.90;;;;;;5066940;28;20106;-82
2023/12/31 00:44:16;;;;;;;13.75;3.20;;;11.30;99.90;;;;;;5064761;28;20178;-81
2023/12/31 00:46:43;;;;;;;7.32;1.98;;;11.00;99.90;;;;;;5063977;28;20045;-84
2023/12/31 00:49:10;;;;;;;4.93;1.23;;;10.80;99.90;;;;;;5061138;28;20131;-82
2023/12/31 00:51:37;;;;;;;3.63;1.15;;;10.60;99.90;;;;;;5066608;28;20045;-82
2023/12/31 00:54:04;;;;;;;2.75;0.80;;;10.30;99.90;;;;;;5060097;28;20115;-82
2023/12/31 00:56:31;;;;;;;1.30;0.60;;;10.10;99.90;;;;;;5066131;28;20052;-81
2023/12/31 00:58:58;;;;;;;2.25;0.75;;;9.80;99.90;;;;;;5069685;28;20491;-81
2023/12/31 01:01:25;;;;;;;2.33;0.60;;;9.50;99.90;;;;;;5067901;28;20044;-80
2023/12/31 01:03:52;;;;;;;2.90;0.40;;;9.20;99.90;;;;;;5053062;28;20727;-83
2023/12/31 01:06:18;;;;;;;3.55;1.10;;;8.90;99.90;;;;;;5066476;28;20114;-81
2023/12/31 01:08:45;;;;;;;9.75;0.70;;;8.70;99.90;;;;;;5065522;28;20107;-83
2023/12/31 01:11:13;;;;;;;2.75;0.60;;;8.60;99.90;;;;;;5068383;28;20480;-82
2023/12/31 01:13:40;;;;;;;1.23;0.60;;;8.50;99.90;;;;;;5061155;28;20053;-82
2023/12/31 01:16:06;;;;;;;3.72;0.50;;;8.40;99.90;;;;;;5064900;28;20086;-83
2023/12/31 01:18:33;;;;;;;3.20;0.85;;;8.30;99.90;;;;;;5067270;28;20094;-83
2023/12/31 01:21:01;;;;;;;2.83;0.85;;;8.30;99.90;;;;;;5069405;28;20134;-81
2023/12/31 01:23:28;;;;;;;1.27;0.68;;;8.20;99.90;;;;;;5067595;28;20098;-81
2023/12/31 01:25:55;;;;;;;2.42;1.02;;;8.20;99.90;;;;;;5069496;28;20037;-80
2023/12/31 01:28:22;;;;;;;5.22;0.60;;;8.20;99.90;;;;;;5067529;28;20052;-79
2023/12/31 01:30:48;;;;;;;3.88;0.60;;;8.20;99.90;;;;;;5054885;28;20075;-79
2023/12/31 01:33:15;;;;;;;9.73;1.35;;;8.20;99.90;;;;;;5062018;28;20143;-78
2023/12/31 01:35:42;;;;;;;3.28;0.60;;;8.10;99.90;;;;;;5060799;28;20052;-78
2023/12/31 01:38:09;;;;;;;9.38;1.55;;;8.10;99.90;;;;;;5061400;28;20126;-77
2023/12/31 01:40:36;;;;;;;2.03;0.80;;;8.10;99.90;;;;;;5064356;28;20052;-77
2023/12/31 01:43:03;;;;;;;7.28;1.27;;;8.10;99.90;;;;;;5059605;28;20040;-76
2023/12/31 01:45:30;;;;;;;2.00;1.30;;;8.10;99.90;;;;;;5061252;28;20041;-76
2023/12/31 01:47:57;;;;;;;6.05;2.03;;;8.10;99.90;;;;;;5062851;28;20040;-77
2023/12/31 01:50:24;;;;;;;6.05;0.80;;;8.10;99.90;;;;;;5061558;28;20250;-76
2023/12/31 01:52:50;;;;;;;3.47;0.50;;;8.10;99.90;;;;;;5062043;28;20094;-76
2023/12/31 01:55:17;;;;;;;1.58;0.50;;;8.10;99.90;;;;;;5061071;28;20056;-76
2023/12/31 01:57:44;;;;;;;6.57;0.85;;;8.10;99.90;;;;;;5064320;28;20082;-75
2023/12/31 02:00:12;;;;;;;2.88;0.70;;;8.10;99.90;;;;;;5074143;28;20502;-74
2023/12/31 02:02:40;;;;;;;5.00;0.68;;;8.00;99.90;;;;;;5062836;28;20052;-75
2023/12/31 02:05:07;;;;;;;5.57;0.60;;;8.10;99.90;;;;;;5064452;28;20190;-74
2023/12/31 02:07:34;;;;;;;5.63;0.88;;;8.00;99.90;;;;;;5065869;28;20072;-74
2023/12/31 02:10:01;;;;;;;6.20;0.80;;;8.00;99.90;;;;;;5065611;28;20054;-74
2023/12/31 02:12:28;;;;;;;7.60;1.15;;;8.00;99.90;;;;;;5063778;28;20063;-74
2023/12/31 02:14:54;;;;;;;3.15;0.60;;;8.10;99.90;;;;;;5053932;28;20052;-76
2023/12/31 02:17:21;;;;;;;9.25;0.85;;;8.00;99.90;;;;;;5064894;28;20052;-75
2023/12/31 02:19:48;;;;;;;3.08;0.80;;;8.10;99.90;;;;;;5067079;28;20044;-75
2023/12/31 02:22:15;;;;;;;2.95;0.43;;;8.00;99.90;;;;;;5062525;28;20131;-74
2023/12/31 02:24:48;;;;;;;5.05;1.08;;;8.00;99.90;;;;;;5070532;28;20052;-74
2023/12/31 02:27:15;;;;;;;5.40;0.95;;;8.10;99.90;;;;;;5058294;28;20418;-74
2023/12/31 02:29:42;;;;;;;2.80;0.60;;;8.00;99.90;;;;;;5073071;28;20044;-74
2023/12/31 02:32:09;;;;;;;2.53;0.52;;;8.10;99.90;;;;;;5064206;28;20094;-74
2023/12/31 02:34:36;;;;;;;4.78;0.65;;;8.10;99.90;;;;;;5064011;28;20422;-74
2023/12/31 02:37:03;;;;;;;3.65;0.90;;;8.10;99.90;;;;;;5064069;28;20067;-74
2023/12/31 02:39:29;;;;;;;6.22;1.42;;;8.10;99.90;;;;;;5062687;28;20044;-74
2023/12/31 02:41:56;;;;;;;2.55;0.60;;;8.10;99.90;;;;;;5058862;28;20048;-74
2023/12/31 02:44:23;;;;;;;5.35;0.75;;;8.10;99.90;;;;;;5060137;28;20045;-74
2023/12/31 02:46:50;;;;;;;4.38;0.82;;;8.10;99.90;;;;;;5061178;28;20088;-73
2023/12/31 02:49:17;;;;;;;12.60;1.23;;;8.10;99.90;;;;;;5062339;28;20047;-74
2023/12/31 02:51:43;;;;;;;13.20;3.30;;;8.10;99.90;;;;;;5059263;28;20118;-75
2023/12/31 02:54:10;;;;;;;5.85;1.70;;;8.10;99.90;;;;;;5060716;28;20044;-73
2023/12/31 02:56:41;;;;;;;5.32;1.00;;;8.10;99.90;;;;;;5060867;28;20458;-74
2023/12/31 02:59:08;;;;;;;7.63;1.23;;;8.10;99.90;;;;;;5065869;28;20036;-74
2023/12/31 03:01:35;;;;;;;5.80;0.68;;;8.10;99.90;;;;;;5070056;28;20517;-74
2023/12/31 03:04:02;;;;;;;5.93;1.15;;;8.10;99.90;;;;;;5070190;28;20056;-73
2023/12/31 03:06:32;;;;;;;11.32;0.95;;;8.10;99.90;;;;;;5073189;28;20045;-73
2023/12/31 03:09:01;;;;;;;9.93;1.10;;;8.20;99.90;;;;;;5058353;28;20091;-72
2023/12/31 03:11:28;;;;;;;7.00;1.00;;;8.20;99.90;;;;;;5069193;28;20048;-73
2023/12/31 03:13:55;;;;;;;3.70;0.77;;;8.20;99.90;;;;;;5068952;28;20049;-73
2023/12/31 03:16:24;;;;;;;8.40;0.90;;;8.20;99.90;;;;;;5069084;28;20044;-73
2023/12/31 03:18:55;;;;;;;8.70;3.05;;;8.20;99.90;;;;;;5068694;28;20087;-73
2023/12/31 03:21:22;;;;;;;6.78;1.15;;;8.20;99.90;;;;;;5062519;28;20428;-75
2023/12/31 03:23:49;;;;;;;5.03;0.93;;;8.20;99.90;;;;;;5067244;28;20044;-74
2023/12/31 03:26:16;;;;;;;10.02;1.20;;;8.20;99.90;;;;;;5068368;28;20044;-74
2023/12/31 03:28:42;;;;;;;8.68;2.17;;;8.20;99.90;;;;;;5067175;28;20323;-73
2023/12/31 03:31:10;;;;;;;9.13;1.15;;;8.20;99.90;;;;;;5068982;28;20123;-75
2023/12/31 03:33:37;;;;;;;8.10;1.67;;;8.20;99.90;;;;;;5063864;28;20136;-73
2023/12/31 03:36:06;;;;;;;5.78;1.63;;;8.20;99.90;;;;;;5063192;28;20068;-72
2023/12/31 03:38:32;;;;;;;1.98;0.80;;;8.20;99.90;;;;;;5068056;28;20106;-72
2023/12/31 03:40:59;;;;;;;10.70;1.27;;;8.30;99.90;;;;;;5068781;28;20549;-72
2023/12/31 03:43:26;;;;;;;5.15;1.00;;;8.20;99.90;;;;;;5065231;28;20045;-73
2023/12/31 03:45:53;;;;;;;5.70;1.10;;;8.30;99.90;;;;;;5068554;28;20047;-74
2023/12/31 03:48:20;;;;;;;14.55;1.42;;;8.30;99.90;;;;;;5070737;28;20040;-73
2023/12/31 03:50:47;;;;;;;9.15;1.17;;;8.30;99.90;;;;;;5077472;28;20128;-74
2023/12/31 03:53:13;;;;;;;8.60;1.63;;;8.30;99.90;;;;;;5070647;28;20518;-73
2023/12/31 03:55:41;;;;;;;7.03;1.58;;;8.30;99.90;;;;;;5076326;28;21044;-74
2023/12/31 03:58:08;;;;;;;9.95;1.52;;;8.30;99.90;;;;;;5068261;28;20197;-73
2023/12/31 04:00:36;;;;;;;11.02;1.65;;;8.30;99.90;;;;;;5054634;28;20742;-72
2023/12/31 04:03:03;;;;;;;17.00;2.35;;;8.30;99.90;;;;;;5065643;28;20114;-74
2023/12/31 04:05:31;;;;;;;11.18;1.38;;;8.30;99.90;;;;;;5054674;28;20257;-74
2023/12/31 04:07:58;;;;;;;8.32;1.38;;;8.30;99.90;;;;;;5066656;28;20079;-74
2023/12/31 04:10:25;;;;;;;8.70;1.83;;;8.30;99.90;;;;;;5079003;28;20306;-73
2023/12/31 04:12:52;;;;;;;6.00;1.13;;;8.30;99.90;;;;;;5066915;28;20048;-73
2023/12/31 04:15:19;;;;;;;14.55;1.92;;;8.30;99.90;;;;;;5067278;28;20106;-73
2023/12/31 04:17:45;;;;;;;11.10;2.13;;;8.40;99.90;;;;;;5067808;28;20051;-73
2023/12/31 04:20:12;;;;;;;11.15;3.63;;;8.30;99.90;;;;;;5078764;28;20087;-73
2023/12/31 04:22:39;;;;;;;13.73;1.60;;;8.30;99.90;;;;;;5067830;28;20055;-73
2023/12/31 04:25:07;;;;;;;7.63;1.98;;;8.30;99.90;;;;;;5066534;28;20036;-74
2023/12/31 04:27:38;;;;;;;14.80;2.25;;;8.20;99.90;;;;;;5068114;28;20491;-73
2023/12/31 04:30:06;;;;;;;11.00;2.00;;;8.20;99.90;;;;;;5066272;28;20036;-73
2023/12/31 04:32:33;;;;;;;12.98;2.03;;;8.20;99.90;;;;;;5067761;28;20080;-73
2023/12/31 04:35:00;;;;;;;19.98;2.10;;;8.20;99.90;;;;;;5062544;28;20047;-74
2023/12/31 04:37:27;;;;;;;24.52;4.20;;;8.20;99.90;;;;;;5060836;28;20098;-74
2023/12/31 04:39:53;;;;;;;11.93;1.30;;;8.10;99.90;;;;;;5066456;28;20159;-74
2023/12/31 04:42:20;;;;;;;10.95;2.30;;;8.10;99.90;;;;;;5060748;28;20110;-74
2023/12/31 04:44:47;;;;;;;6.43;1.40;;;8.10;99.90;;;;;;5061419;28;20140;-73
2023/12/31 04:47:14;;;;;;;15.27;2.03;;;8.10;99.90;;;;;;5061286;28;20044;-74
2023/12/31 04:49:41;;;;;;;8.52;1.33;;;8.10;99.90;;;;;;5063259;28;20051;-75
2023/12/31 04:52:08;;;;;;;10.80;1.42;;;8.10;99.90;;;;;;5054158;28;20107;-74
2023/12/31 04:54:36;;;;;;;8.23;2.28;;;8.10;99.90;;;;;;5067196;28;20044;-74
2023/12/31 04:57:04;;;;;;;16.40;2.00;;;8.10;99.90;;;;;;5066686;28;20054;-75
2023/12/31 04:59:30;;;;;;;11.15;1.95;;;8.10;99.90;;;;;;5066648;28;20052;-75
2023/12/31 05:01:57;;;;;;;10.85;1.58;;;8.10;99.90;;;;;;5065219;28;20601;-75
2023/12/31 05:04:24;;;;;;;8.45;1.30;;;8.10;99.90;;;;;;5065705;28;20048;-75
2023/12/31 05:06:51;;;;;;;11.93;1.38;;;8.10;99.90;;;;;;5054686;28;20044;-76
2023/12/31 05:09:18;;;;;;;7.63;1.25;;;8.10;99.90;;;;;;5065933;28;20233;-76
2023/12/31 05:11:45;;;;;;;9.25;1.33;;;8.10;99.90;;;;;;5065909;28;20135;-75
2023/12/31 05:14:11;;;;;;;14.27;1.70;;;8.00;99.90;;;;;;5060661;28;20048;-75
2023/12/31 05:16:38;;;;;;;8.63;1.10;;;8.00;99.90;;;;;;5049181;28;20079;-75
2023/12/31 05:19:05;;;;;;;9.15;1.17;;;7.90;99.90;;;;;;5072795;28;20047;-74
2023/12/31 05:21:32;;;;;;;14.27;1.10;;;7.90;99.90;;;;;;5067352;28;20139;-76
2023/12/31 05:24:00;;;;;;;6.88;1.13;;;7.90;99.90;;;;;;5064755;28;20106;-76
2023/12/31 05:26:26;;;;;;;3.17;1.15;;;7.90;99.90;;;;;;5065579;28;20603;-75
2023/12/31 05:28:53;;;;;;;5.20;1.33;;;7.80;99.90;;;;;;5065585;28;20121;-74
2023/12/31 05:31:20;;;;;;;8.30;1.58;;;7.80;99.90;;;;;;5064591;28;20051;-75
2023/12/31 05:33:47;;;;;;;6.05;0.98;;;7.80;99.90;;;;;;5068231;28;20132;-75
2023/12/31 05:36:14;;;;;;;4.63;0.90;;;7.80;99.90;;;;;;5065853;28;20131;-75
2023/12/31 05:38:41;;;;;;;8.65;1.10;;;7.70;99.90;;;;;;5061012;28;20053;-75
2023/12/31 05:41:07;;;;;;;4.38;0.70;;;7.70;99.90;;;;;;5065538;28;20053;-75
2023/12/31 05:43:34;;;;;;;10.80;1.00;;;7.70;99.90;;;;;;5066684;28;20095;-75
2023/12/31 05:46:01;;;;;;;5.13;0.70;;;7.60;99.90;;;;;;5063853;28;20044;-74
2023/12/31 05:48:28;;;;;;;2.13;0.85;;;7.60;99.90;;;;;;5058270;28;20055;-75
2023/12/31 05:50:55;;;;;;;3.80;0.75;;;7.60;99.90;;;;;;5061424;28;20525;-75
2023/12/31 05:53:22;;;;;;;3.70;0.50;;;7.60;99.90;;;;;;5065390;28;20052;-75
2023/12/31 05:55:49;;;;;;;1.55;0.57;;;7.50;99.90;;;;;;5062276;28;20053;-76
2023/12/31 05:58:16;;;;;;;2.00;0.30;;;7.50;99.90;;;;;;5062928;28;20511;-75
2023/12/31 06:00:43;;;;;;;1.58;0.47;;;7.50;99.90;;;;;;5062246;28;20151;-75
2023/12/31 06:03:10;;;;;;;4.43;0.52;;;7.40;99.90;;;;;;5066489;28;20075;-76
2023/12/31 06:05:37;;;;;;;2.95;0.50;;;7.40;99.90;;;;;;5065366;28;20502;-75
2023/12/31 06:08:04;;;;;;;1.73;0.20;;;7.30;99.90;;;;;;5065831;28;20049;-75
2023/12/31 06:10:31;;;;;;;6.13;0.45;;;7.20;99.90;;;;;;5064296;28;20923;-74
2023/12/31 06:12:58;;;;;;;1.80;0.40;;;7.20;99.90;;;;;;5066907;28;20048;-75
2023/12/31 06:15:25;;;;;;;0.30;0.30;;;7.10;99.90;;;;;;5064484;28;20128;-76
2023/12/31 06:17:52;;;;;;;0.93;0.40;;;7.10;99.90;;;;;;5065708;28;20055;-74
2023/12/31 06:20:19;;;;;;;1.67;0.65;;;7.10;99.90;;;;;;5076978;28;20083;-75
2023/12/31 06:22:46;;;;;;;1.88;0.75;;;7.10;99.90;;;;;;5066126;28;20682;-75
2023/12/31 06:25:13;;;;;;;0.63;0.25;;;7.10;99.90;;;;;;5065999;28;20047;-75
2023/12/31 06:27:40;;;;;;;2.90;0.50;;;7.10;99.90;;;;;;5060717;28;20060;-73
2023/12/31 06:30:07;;;;;;;4.22;0.50;;;7.10;99.90;;;;;;5069433;28;20506;-75
2023/12/31 06:32:34;;;;;;;2.15;0.88;;;7.10;99.90;;;;;;5070286;28;20045;-75
2023/12/31 06:35:03;;;;;;;3.60;0.38;;;7.10;99.90;;;;;;5076185;28;20048;-77
2023/12/31 06:37:29;;;;;;;1.83;0.43;;;7.00;99.90;;;;;;5071765;28;20109;-77
2023/12/31 06:39:57;;;;;;;1.42;0.90;;;7.00;99.90;;;;;;5071365;28;20064;-77
2023/12/31 06:42:24;;;;;;;4.30;0.55;;;7.00;99.90;;;;;;5071560;28;20137;-76
2023/12/31 06:44:51;;;;;;;3.17;0.40;;;7.00;99.90;;;;;;5071990;28;20036;-76
2023/12/31 06:47:18;;;;;;;1.92;0.50;;;7.00;99.90;;;;;;5071545;28;20113;-77
2023/12/31 06:49:45;;;;;;;5.13;0.60;;;6.90;99.90;;;;;;5077726;28;20372;-77
2023/12/31 06:52:13;;;;;;;2.13;0.30;;;6.90;99.90;;;;;;5070551;28;20124;-76
2023/12/31 06:54:41;;;;;;;2.38;0.50;;;6.90;99.90;;;;;;5071713;28;20048;-76
2023/12/31 06:57:08;;;;;;;6.63;0.65;;;6.90;99.90;;;;;;5070359;28;20423;-77
2023/12/31 06:59:35;;;;;;;2.97;0.30;;;6.80;99.90;;;;;;5079660;28;20051;-75
2023/12/31 07:02:03;;;;;;;3.33;0.60;;;6.80;99.90;;;;;;5075751;28;20118;-77
2023/12/31 07:04:30;;;;;;;1.70;0.52;;;6.80;99.90;;;;;;5072245;28;20052;-77
2023/12/31 07:06:58;;;;;;;3.60;0.68;;;6.80;99.90;;;;;;5071257;28;20841;-76
2023/12/31 07:09:25;;;;;;;2.83;0.30;;;6.80;99.90;;;;;;5070736;28;20049;-77
2023/12/31 07:11:52;;;;;;;2.28;0.77;;;6.70;99.90;;;;;;5071674;28;20063;-77
2023/12/31 07:14:20;;;;;;;2.63;0.60;;;6.70;99.90;;;;;;5071897;28;20053;-76
2023/12/31 07:16:47;;;;;;;3.35;0.70;;;6.70;99.90;;;;;;5071526;28;20056;-76
2023/12/31 07:19:15;;;;;;;5.90;0.45;;;6.70;99.90;;;;;;5070248;28;20079;-76
2023/12/31 07:21:43;;;;;;;2.95;0.70;;;6.70;99.90;;;;;;5069973;28;20443;-76
2023/12/31 07:24:10;;;;;;;2.28;0.90;;;6.70;99.90;;;;;;5071726;28;20044;-76
2023/12/31 07:26:36;;;;;;;1.85;0.70;;;6.70;99.90;;;;;;5070305;28;20617;-77
2023/12/31 07:29:03;;;;;;;1.90;0.65;;;6.70;99.90;;;;;;5071317;28;20040;-76
2023/12/31 07:31:37;;;;;;;4.72;0.90;;;6.70;99.90;;;;;;5074669;28;20075;-76
2023/12/31 07:34:05;;;;;;;4.63;0.50;;;6.70;99.90;;;;;;5076070;28;20041;-76
2023/12/31 07:36:32;;;;;;;3.78;0.82;;;6.70;99.90;;;;;;5071173;28;20371;-76
2023/12/31 07:38:59;;;;;;;4.60;0.60;;;6.70;99.90;;;;;;5071518;28;20453;-76
2023/12/31 07:41:26;;;;;;;3.30;0.70;;;6.70;99.90;;;;;;5069195;28;20041;-77
2023/12/31 07:43:54;;;;;;;7.13;0.73;;;6.70;99.90;;;;;;5068089;28;20457;-76
2023/12/31 07:46:21;;;;;;;1.20;0.60;;;6.70;99.90;;;;;;5062364;28;20045;-77
2023/12/31 07:48:49;;;;;;;2.25;1.00;;;6.70;99.90;;;;;;5056370;28;20680;-77
2023/12/31 07:51:17;;;;;;;6.78;0.90;;;6.70;99.90;;;;;;5058953;28;20047;-76
2023/12/31 07:53:44;;;;;;;2.20;0.70;;;6.70;99.90;;;;;;5066078;28;20496;-77
2023/12/31 07:56:10;;;;;;;4.07;0.90;;;6.70;99.90;;;;;;5072750;28;20052;-76
2023/12/31 07:58:37;;;;;;;5.88;0.80;;;6.80;99.90;;;;;;5068063;28;20082;-77
2023/12/31 08:01:04;;;;;;;3.20;1.00;;;6.80;99.90;;;;;;5068396;28;20045;-77
2023/12/31 08:03:31;;;;;;;9.38;1.58;;;6.80;99.90;;;;;;5068621;28;20060;-76
2023/12/31 08:05:58;;;;;;;3.67;1.05;;;6.80;99.90;;;;;;5068417;28;20068;-76
2023/12/31 08:08:25;;;;;;;8.35;1.25;;;6.80;99.90;;;;;;5050678;28;20162;-77
2023/12/31 08:10:52;;;;;;;6.80;1.30;;;6.90;99.90;;;;;;5064977;28;20039;-76
2023/12/31 08:13:19;;;;;;;9.85;3.47;;;6.90;99.90;;;;;;5065739;28;20049;-76
2023/12/31 08:15:46;;;;;;;14.32;1.40;;;6.90;99.90;;;;;;5068798;28;20404;-76
2023/12/31 08:18:13;;;;;;;8.45;2.10;;;7.00;99.90;;;;;;5065942;28;20048;-76
2023/12/31 08:20:40;;;;;;;4.97;1.80;;;7.00;99.90;;;;;;5063064;28;20081;-76
2023/12/31 08:23:07;;;;;;;12.65;3.65;;;7.10;99.90;;;;;;5064244;28;20056;-76
2023/12/31 08:25:34;;;;;;;8.93;1.60;;;7.10;99.90;;;;;;5066392;28;20495;-78
2023/12/31 08:28:01;;;;;;;14.85;3.03;;;7.10;99.90;;;;;;5058245;28;20056;-77
2023/12/31 08:30:28;;;;;;;11.07;1.70;;;7.10;99.90;;;;;;5062023;28;20041;-78
2023/12/31 08:32:55;;;;;;;14.23;1.90;;;7.20;99.90;;;;;;5063418;28;20055;-77
2023/12/31 08:35:26;;;;;;;12.82;1.92;;;7.30;99.90;;;;;;5060459;28;20131;-77
2023/12/31 08:37:53;;;;;;;18.90;2.20;;;7.30;99.90;;;;;;5058272;28;20048;-77
2023/12/31 08:40:20;;;;;;;9.60;2.33;;;7.40;99.90;;;;;;5067290;28;20090;-75
2023/12/31 08:42:47;;;;;;;13.95;2.15;;;7.40;99.90;;;;;;5066269;28;20056;-79
2023/12/31 08:45:13;;;;;;;16.17;3.38;;;7.40;99.90;;;;;;5055155;28;20086;-79
2023/12/31 08:47:40;;;;;;;20.75;4.25;;;7.50;99.90;;;;;;5065992;28;20056;-78
2023/12/31 08:50:09;;;;;;;11.85;3.10;;;7.50;99.90;;;;;;5050007;28;20054;-79
2023/12/31 08:52:39;;;;;;;12.00;3.33;;;7.50;99.90;;;;;;5068097;28;20987;-79
2023/12/31 08:55:07;;;;;;;12.70;2.70;;;7.60;99.90;;;;;;5061479;28;20052;-78
2023/12/31 08:57:35;;;;;;;31.50;2.53;;;7.60;99.90;;;;;;5061410;28;20059;-79
2023/12/31 09:00:03;;;;;;;15.43;3.60;;;7.60;99.90;;;;;;5066222;28;20057;-79
2023/12/31 09:02:29;;;;;;;21.27;2.60;;;7.60;99.90;;;;;;5076410;28;20113;-79
2023/12/31 09:04:56;;;;;;;14.98;2.28;;;7.70;99.90;;;;;;5067143;28;20044;-79
2023/12/31 09:07:23;;;;;;;12.98;2.80;;;7.70;99.90;;;;;;5066960;28;20044;-79
2023/12/31 09:09:50;;;;;;;12.70;1.92;;;7.70;99.90;;;;;;5067514;28;20557;-79
2023/12/31 09:12:17;;;;;;;11.38;1.98;;;7.70;99.90;;;;;;5063404;28;20079;-79
2023/12/31 09:14:44;;;;;;;12.63;2.42;;;7.80;99.90;;;;;;5057049;28;20127;-79
2023/12/31 09:17:11;;;;;;;8.80;2.10;;;7.80;99.90;;;;;;5062348;28;20472;-78
2023/12/31 09:19:38;;;;;;;11.10;3.00;;;7.80;99.90;;;;;;5067827;28;20072;-76
2023/12/31 09:22:05;;;;;;;11.80;2.55;;;7.90;99.90;;;;;;5074660;28;20045;-76
2023/12/31 09:24:32;;;;;;;11.90;1.83;;;7.90;99.90;;;;;;5059330;28;20102;-77
2023/12/31 09:26:59;;;;;;;17.80;2.80;;;8.00;99.90;;;;;;5060964;28;20094;-78
2023/12/31 09:29:26;;;;;;;18.00;4.35;;;8.10;99.90;;;;;;5066770;28;20499;-78
2023/12/31 09:31:53;;;;;;;17.65;2.00;;;8.20;99.90;;;;;;5059274;28;20052;-77
2023/12/31 09:34:20;;;;;;;12.63;1.85;;;8.20;99.90;;;;;;5067357;28;20102;-79
2023/12/31 09:36:46;;;;;;;20.05;3.22;;;8.30;99.90;;;;;;5061898;28;20135;-78
2023/12/31 09:39:13;;;;;;;16.65;3.33;;;8.30;99.90;;;;;;5067356;28;20044;-78
2023/12/31 09:41:40;;;;;;;20.15;2.00;;;8.30;99.90;;;;;;5059901;28;20040;-78
2023/12/31 09:44:07;;;;;;;20.88;2.80;;;8.40;99.90;;;;;;5064667;28;20052;-80
2023/12/31 09:46:37;;;;;;;16.23;2.42;;;8.40;99.90;;;;;;5047338;28;20076;-79
2023/12/31 09:49:04;;;;;;;20.35;3.25;;;8.40;99.90;;;;;;5057130;28;20098;-79
2023/12/31 09:51:30;;;;;;;19.50;2.70;;;8.50;99.90;;;;;;5060171;28;20064;-78
2023/12/31 09:53:57;;;;;;;17.35;3.95;;;8.50;99.90;;;;;;5065425;28;20072;-78
2023/12/31 09:56:24;;;;;;;20.23;3.08;;;8.60;99.90;;;;;;5056324;28;20080;-79
2023/12/31 09:58:51;;;;;;;8.32;2.28;;;8.50;99.90;;;;;;5065533;28;20102;-78
2023/12/31 10:01:31;;;;;;;16.58;1.98;;;8.40;99.90;;;;;;5060758;28;20439;-79
2023/12/31 10:03:57;;;;;;;16.83;3.10;;;8.20;99.90;;;;;;5064991;28;20051;-80
2023/12/31 10:06:25;;;;;;;13.60;2.08;;;8.10;99.90;;;;;;5044990;28;20156;-81
2023/12/31 10:08:51;;;;;;;30.13;3.40;;;8.00;99.90;;;;;;5063289;28;20052;-79
2023/12/31 10:11:18;;;;;;;9.90;2.08;;;8.00;99.90;;;;;;5052667;28;20052;-78
2023/12/31 10:13:45;;;;;;;23.05;4.88;;;7.90;99.90;;;;;;5054724;28;20052;-79
2023/12/31 10:16:13;;;;;;;21.02;2.95;;;7.80;99.90;;;;;;5066651;28;20056;-77
2023/12/31 10:18:40;;;;;;;20.45;3.30;;;7.80;99.90;;;;;;5062384;28;20045;-76
2023/12/31 10:21:08;;;;;;;31.33;2.83;;;7.80;99.90;;;;;;5061264;28;20040;-74
2023/12/31 10:23:35;;;;;;;17.20;2.58;;;7.70;99.90;;;;;;5066566;28;20109;-76
2023/12/31 10:26:02;;;;;;;20.35;3.30;;;7.70;99.90;;;;;;5065335;28;20044;-75
2023/12/31 10:28:29;;;;;;;20.75;2.58;;;7.70;99.90;;;;;;5048346;28;20045;-75
2023/12/31 10:30:56;;;;;;;19.40;3.70;;;7.60;99.90;;;;;;5064410;28;20515;-75
2023/12/31 10:33:27;;;;;;;25.05;3.15;;;7.60;99.90;;;;;;5055607;28;20052;-75
2023/12/31 10:36:07;;;;;;;26.88;3.67;;;7.70;99.90;;;;;;5056710;28;20059;-76
2023/12/31 10:38:47;;;;;;;13.82;2.67;;;7.70;99.90;;;;;;5055754;28;20193;-75
2023/12/31 10:41:20;;;;;;;18.42;2.63;;;7.70;99.90;;;;;;5052150;28;20044;-77
2023/12/31 10:43:48;;;;;;;11.23;2.03;;;7.70;99.90;;;;;;5051867;28;20049;-76
2023/12/31 10:46:16;;;;;;;20.13;2.92;;;7.80;99.90;;;;;;5064036;28;20053;-76
2023/12/31 10:48:48;;;;;;;18.33;2.13;;;7.80;99.90;;;;;;5054622;28;20473;-81
2023/12/31 10:51:22;;;;;;;13.30;2.30;;;7.80;99.90;;;;;;5061368;28;20041;-76
2023/12/31 10:54:05;;;;;;;15.99;2.87;;;7.90;99.90;;;;;;4978286;28;10001172;-76
2023/12/31 10:56:32;;;;;;;13.95;2.08;;;7.80;99.90;;;;;;5059210;28;20247;-73
2023/12/31 10:58:59;;;;;;;10.40;2.00;;;7.80;99.90;;;;;;5059569;28;20044;-76
2023/12/31 11:01:26;;;;;;;14.23;2.13;;;7.80;99.90;;;;;;5052377;28;20051;-76
2023/12/31 11:03:54;;;;;;;14.18;2.40;;;7.80;99.90;;;;;;5059533;28;20101;-76
2023/12/31 11:06:20;;;;;;;13.05;2.13;;;7.80;99.90;;;;;;5049430;28;20052;-77
2023/12/31 11:08:47;;;;;;;16.23;2.58;;;7.80;99.90;;;;;;5034729;28;20099;-76
2023/12/31 11:11:15;;;;;;;20.40;2.00;;;7.80;99.90;;;;;;5061759;28;20379;-74
2023/12/31 11:13:43;;;;;;;11.07;2.08;;;7.80;99.90;;;;;;5054825;28;20052;-76
2023/12/31 11:16:31;;;;;;;7.90;2.15;;;7.80;99.90;;;;;;5053213;28;20049;-76
2023/12/31 11:18:58;;;;;;;18.27;2.10;;;7.90;99.90;;;;;;5043907;28;20055;-76
2023/12/31 11:21:52;;;;;;;19.52;2.35;;;7.90;99.90;;;;;;5057369;28;20052;-76
2023/12/31 11:24:19;;;;;;;19.05;2.67;;;8.00;99.90;;;;;;5060045;28;20083;-75
2023/12/31 11:27:03;;;;;;;17.65;2.22;;;7.90;99.90;;;;;;5039853;28;20502;-76
2023/12/31 11:29:30;;;;;;;14.68;2.60;;;8.00;99.90;;;;;;5056483;28;20490;-75
2023/12/31 11:31:57;;;;;;;11.32;2.25;;;8.00;99.90;;;;;;5049979;28;20480;-75
2023/12/31 11:34:24;;;;;;;15.45;2.42;;;8.00;99.90;;;;;;5056508;28;20053;-75
2023/12/31 11:36:55;;;;;;;14.80;2.22;;;8.00;99.90;;;;;;5048903;28;20132;-74
2023/12/31 11:39:23;;;;;;;16.45;2.30;;;8.00;99.90;;;;;;5042875;28;20106;-75
2023/12/31 11:41:52;;;;;;;10.65;2.13;;;8.00;99.90;;;;;;5052688;28;20080;-74
2023/12/31 11:44:37;;;;;;;9.35;2.20;;;8.10;99.90;;;;;;5052602;28;20052;-75
2023/12/31 11:47:13;;;;;;;13.10;2.67;;;8.10;99.90;;;;;;5051594;28;20127;-76
2023/12/31 11:49:53;;;;;;;13.68;2.20;;;8.10;99.90;;;;;;5059226;28;20040;-76
2023/12/31 11:52:21;;;;;;;6.57;1.45;;;8.10;99.90;;;;;;5056690;28;20139;-77
2023/12/31 11:54:49;;;;;;;7.07;1.77;;;8.20;99.90;;;;;;5053103;28;20055;-77
2023/12/31 11:57:17;;;;;;;14.38;3.45;;;8.20;99.90;;;;;;5038951;28;20106;-77
2023/12/31 11:59:44;;;;;;;11.35;2.53;;;8.20;99.90;;;;;;5052527;28;20057;-74
2023/12/31 12:02:11;;;;;;;7.47;1.83;;;8.20;99.90;;;;;;5056409;28;20049;-74
2023/12/31 12:04:38;;;;;;;8.43;1.85;;;8.30;99.90;;;;;;5051046;28;20045;-74
2023/12/31 12:07:05;;;;;;;7.00;1.35;;;8.30;99.90;;;;;;5048642;28;20049;-73
2023/12/31 12:09:32;;;;;;;7.90;1.55;;;8.30;99.90;;;;;;5051000;28;20040;-74
2023/12/31 12:12:03;;;;;;;7.32;1.20;;;8.40;99.90;;;;;;5052139;28;20048;-73
2023/12/31 12:14:30;;;;;;;4.78;1.10;;;8.50;99.90;;;;;;5057328;28;20137;-73
2023/12/31 12:16:58;;;;;;;3.70;1.20;;;8.70;99.90;;;;;;5052231;28;20582;-73
2023/12/31 12:19:26;;;;;;;7.85;2.00;;;8.80;99.90;;;;;;5054535;28;20048;-74
2023/12/31 12:21:53;;;;;;;8.00;1.90;;;8.90;99.90;;;;;;5055886;28;20051;-73
2023/12/31 12:24:20;;;;;;;7.93;1.83;;;9.10;99.90;;;;;;5056704;28;20503;-73
2023/12/31 12:26:50;;;;;;;5.97;1.60;;;9.30;99.90;;;;;;5054913;28;20052;-72
2023/12/31 12:29:17;;;;;;;5.55;1.70;;;9.40;99.90;;;;;;5060420;28;20089;-73
2023/12/31 12:31:46;;;;;;;7.15;1.60;;;9.40;99.90;;;;;;5059840;28;20053;-74
2023/12/31 12:34:16;;;;;;;9.98;1.65;;;9.40;99.90;;;;;;5058523;28;20064;-74
2023/12/31 12:36:46;;;;;;;10.65;2.25;;;9.30;99.90;;;;;;5056106;28;20110;-73
2023/12/31 12:39:18;;;;;;;10.73;1.90;;;9.30;99.90;;;;;;5050072;28;20056;-72
2023/12/31 12:41:45;;;;;;;7.18;1.73;;;9.30;99.90;;;;;;5056945;28;20068;-73
2023/12/31 12:44:13;;;;;;;10.07;1.63;;;9.30;99.90;;;;;;5053418;28;20079;-75
2023/12/31 12:46:40;;;;;;;14.63;3.08;;;9.30;99.90;;;;;;5057715;28;20048;-74
2023/12/31 12:49:08;;;;;;;9.77;1.77;;;9.30;99.90;;;;;;5057703;28;20051;-72
2023/12/31 12:51:36;;;;;;;16.50;2.63;;;9.40;99.90;;;;;;5041730;28;20133;-73
2023/12/31 12:54:06;;;;;;;17.88;3.22;;;9.50;99.90;;;;;;5062836;28;20044;-74